Saddle, North Carolina
Current Conditions -  °F | °C
As of 12:15 PM on Thursday 18 Dec 2014 (Local Time) from KHLX Reporting Station
Overcast Overcast  
Wind Chill: 27°   Ceiling: 7000
Heat Index: 34°   Visibility: 10mi
Dew Point: 21°   Wind: 8mph
Humidity: 60%   Direction: 290°WNW
Pressure: 30.08"   Gusts: NA
Location:  36.5243°N, 80.9743°W
Report Text: KHLX 181715Z AUTO 29007KT 10SM OVC070 01/M06 A3008 RMK AO2 T00091060
Loading
Personal Weather Stations






























Interactive Weather Map New forecast layout! Learn more

10-Day Weather Forecast

Advertisements
Track Severe Weather on mobile